createdAt,value
2023-03-27T00:02:21.646Z,100.00
2023-03-27T00:05:29.581Z,100.00
2023-03-27T00:08:40.289Z,100.00
2023-03-27T00:11:48.798Z,100.00
2023-03-27T00:14:56.456Z,100.00
2023-03-27T00:18:05.559Z,100.00
2023-03-27T00:21:13.278Z,100.00
2023-03-27T00:24:21.849Z,100.00
2023-03-27T00:27:30.725Z,100.00
2023-03-27T00:30:43.643Z,100.00
2023-03-27T00:33:51.324Z,100.00
2023-03-27T00:37:07.262Z,100.00
2023-03-27T00:40:22.641Z,100.00
2023-03-27T00:43:32.112Z,100.00
2023-03-27T00:46:45.544Z,100.00
2023-03-27T00:49:53.709Z,100.00
2023-03-27T00:53:05.354Z,100.00
2023-03-27T00:56:12.571Z,100.00
2023-03-27T00:59:22.049Z,100.00
2023-03-27T01:02:30.395Z,100.00
2023-03-27T01:05:37.916Z,100.00
2023-03-27T01:08:46.915Z,100.00
2023-03-27T01:12:12.554Z,100.00
2023-03-27T01:15:30.488Z,100.00
2023-03-27T01:19:00.416Z,100.00
2023-03-27T01:22:24.871Z,100.00
2023-03-27T01:25:35.624Z,100.00
2023-03-27T01:29:05.868Z,100.00
2023-03-27T01:32:44.004Z,100.00
2023-03-27T01:35:59.825Z,100.00
2023-03-27T01:39:22.790Z,100.00
2023-03-27T01:42:35.547Z,100.00
2023-03-27T01:45:46.538Z,100.00
2023-03-27T01:48:58.025Z,100.00
2023-03-27T01:52:08.031Z,100.00
2023-03-27T01:55:20.991Z,100.00
2023-03-27T01:58:32.029Z,100.00
2023-03-27T02:01:41.447Z,100.00
2023-03-27T02:04:57.500Z,100.00
2023-03-27T02:08:42.288Z,100.00
2023-03-27T02:11:59.491Z,100.00
2023-03-27T02:15:23.658Z,100.00
2023-03-27T02:18:38.174Z,100.00
2023-03-27T02:21:49.030Z,100.00
2023-03-27T02:24:58.509Z,100.00
2023-03-27T02:28:25.333Z,100.00
2023-03-27T02:31:37.765Z,100.00
2023-03-27T02:34:51.197Z,100.00
2023-03-27T02:38:19.903Z,100.00
2023-03-27T02:41:39.538Z,100.00
2023-03-27T02:44:55.688Z,100.00
2023-03-27T02:48:17.583Z,100.00
2023-03-27T02:51:49.587Z,100.00
2023-03-27T02:55:07.592Z,100.00
2023-03-27T02:58:20.697Z,100.00
2023-03-27T03:01:32.864Z,100.00
2023-03-27T03:04:48.211Z,100.00
2023-03-27T03:08:01.401Z,100.00
2023-03-27T03:11:12.491Z,100.00
2023-03-27T03:14:31.099Z,100.00
2023-03-27T03:17:38.807Z,100.00
2023-03-27T03:20:47.659Z,100.00
2023-03-27T03:23:59.108Z,100.00
2023-03-27T03:27:10.817Z,100.00
2023-03-27T03:30:20.000Z,100.00
2023-03-27T03:33:29.735Z,100.00
2023-03-27T03:36:37.707Z,100.00
2023-03-27T03:39:45.836Z,100.00
2023-03-27T03:42:58.707Z,100.00
2023-03-27T03:46:09.115Z,100.00
2023-03-27T03:49:21.188Z,100.00
2023-03-27T03:52:31.921Z,100.00
2023-03-27T03:55:42.100Z,100.00
2023-03-27T03:58:52.306Z,100.00
2023-03-27T04:02:01.806Z,100.00
2023-03-27T04:05:11.226Z,100.00
2023-03-27T04:08:19.844Z,100.00
2023-03-27T04:11:27.591Z,100.00
2023-03-27T04:14:35.740Z,100.00
2023-03-27T04:17:47.736Z,100.00
2023-03-27T04:20:55.300Z,100.00
2023-03-27T04:24:04.694Z,100.00
2023-03-27T04:27:16.825Z,100.00
2023-03-27T04:30:31.299Z,100.00
2023-03-27T04:33:47.816Z,100.00
2023-03-27T04:36:58.435Z,100.00
2023-03-27T04:40:07.171Z,100.00
2023-03-27T04:43:14.288Z,100.00
2023-03-27T04:46:18.198Z,100.00
2023-03-27T04:49:32.233Z,100.00
2023-03-27T04:52:42.744Z,100.00
2023-03-27T04:55:51.406Z,100.00
2023-03-27T04:58:58.730Z,100.00
2023-03-27T05:02:06.951Z,100.00
2023-03-27T05:05:15.280Z,100.00
2023-03-27T05:08:21.877Z,100.00
2023-03-27T05:11:28.846Z,100.00
2023-03-27T05:14:41.055Z,100.00
2023-03-27T05:17:53.516Z,100.00
2023-03-27T05:21:05.154Z,100.00
2023-03-27T05:24:13.257Z,100.00
2023-03-27T05:27:19.990Z,100.00
2023-03-27T05:30:26.936Z,100.00
2023-03-27T05:33:37.191Z,100.00
2023-03-27T05:36:46.952Z,100.00
2023-03-27T05:39:56.071Z,100.00
2023-03-27T05:43:00.388Z,100.00
2023-03-27T05:46:03.836Z,100.00
2023-03-27T05:49:07.837Z,100.00
2023-03-27T05:52:11.360Z,100.00
2023-03-27T05:55:17.629Z,100.00
2023-03-27T05:58:21.671Z,100.00
2023-03-27T06:01:28.550Z,100.00
2023-03-27T06:04:38.005Z,100.00
2023-03-27T06:07:43.524Z,100.00
2023-03-27T06:10:49.442Z,100.00
2023-03-27T06:13:55.636Z,100.00
2023-03-27T06:17:01.598Z,100.00
2023-03-27T06:20:15.747Z,100.00
2023-03-27T06:23:25.787Z,100.00
2023-03-27T06:26:30.314Z,100.00
2023-03-27T06:29:38.660Z,100.00
2023-03-27T06:32:54.475Z,100.00
2023-03-27T06:36:01.165Z,100.00
2023-03-27T06:39:06.911Z,100.00
2023-03-27T06:42:17.036Z,100.00
2023-03-27T06:45:22.940Z,100.00
2023-03-27T06:48:29.215Z,100.00
2023-03-27T06:51:35.625Z,100.00
2023-03-27T06:54:40.029Z,100.00
2023-03-27T06:57:45.436Z,100.00
2023-03-27T07:00:53.065Z,100.00
2023-03-27T07:04:05.036Z,100.00
2023-03-27T07:07:12.340Z,100.00
2023-03-27T07:10:17.377Z,100.00
2023-03-27T07:13:23.427Z,100.00
2023-03-27T07:16:28.671Z,100.00
2023-03-27T07:19:35.780Z,100.00
2023-03-27T07:22:43.919Z,100.00
2023-03-27T07:25:50.997Z,100.00
2023-03-27T07:29:01.798Z,100.00
2023-03-27T07:32:09.154Z,100.00
2023-03-27T07:35:14.639Z,100.00
2023-03-27T07:38:23.329Z,100.00
2023-03-27T07:41:30.847Z,100.00
2023-03-27T07:44:38.831Z,100.00
2023-03-27T07:47:46.383Z,100.00
2023-03-27T07:50:51.841Z,100.00
2023-03-27T07:54:04.903Z,100.00
2023-03-27T07:57:10.458Z,100.00
2023-03-27T08:00:18.364Z,100.00
2023-03-27T08:03:28.959Z,100.00
2023-03-27T08:06:33.106Z,100.00
2023-03-27T08:09:40.028Z,100.00
2023-03-27T08:12:46.106Z,100.00
2023-03-27T08:15:52.669Z,100.00
2023-03-27T08:18:58.570Z,100.00
2023-03-27T08:22:04.441Z,100.00
2023-03-27T08:25:14.416Z,100.00
2023-03-27T08:28:21.545Z,100.00
2023-03-27T08:31:31.066Z,100.00
2023-03-27T08:34:38.770Z,100.00
2023-03-27T08:37:44.288Z,100.00
2023-03-27T08:40:53.153Z,100.00
2023-03-27T08:44:00.125Z,100.00
2023-03-27T08:47:12.591Z,100.00
2023-03-27T08:50:33.933Z,100.00
2023-03-27T08:53:42.565Z,100.00
2023-03-27T08:56:49.645Z,100.00
2023-03-27T09:00:02.615Z,100.00
2023-03-27T09:03:18.494Z,100.00
2023-03-27T09:06:26.604Z,100.00
2023-03-27T09:09:47.446Z,100.00
2023-03-27T09:13:16.276Z,100.00
2023-03-27T09:16:28.164Z,100.00
2023-03-27T09:19:37.333Z,100.00
2023-03-27T09:22:44.832Z,100.00
2023-03-27T09:25:57.307Z,100.00
2023-03-27T09:29:22.860Z,100.00
2023-03-27T09:32:28.557Z,100.00
2023-03-27T09:35:43.082Z,100.00
2023-03-27T09:38:51.026Z,100.00
2023-03-27T09:42:11.663Z,100.00
2023-03-27T09:45:16.957Z,100.00
2023-03-27T09:48:39.305Z,100.00
2023-03-27T09:51:48.283Z,100.00
2023-03-27T09:55:00.430Z,100.00
2023-03-27T09:58:26.753Z,100.00
2023-03-27T10:01:34.706Z,100.00
2023-03-27T10:04:40.051Z,100.00
2023-03-27T10:07:45.980Z,100.00
2023-03-27T10:11:03.045Z,100.00
2023-03-27T10:14:20.597Z,100.00
2023-03-27T10:17:27.202Z,100.00
2023-03-27T10:20:35.224Z,100.00
2023-03-27T10:23:49.436Z,100.00
2023-03-27T10:26:56.408Z,100.00
2023-03-27T10:30:03.750Z,100.00
2023-03-27T10:33:10.938Z,100.00
2023-03-27T10:36:18.023Z,100.00
2023-03-27T10:39:27.160Z,100.00
2023-03-27T10:42:33.835Z,100.00
2023-03-27T10:45:44.911Z,100.00
2023-03-27T10:49:21.450Z,100.00
2023-03-27T10:52:35.596Z,100.00
2023-03-27T10:55:52.859Z,100.00
2023-03-27T10:59:02.050Z,100.00
2023-03-27T11:02:17.471Z,100.00
2023-03-27T11:05:29.282Z,100.00
2023-03-27T11:08:58.935Z,100.00
2023-03-27T11:12:10.965Z,100.00
2023-03-27T11:15:20.623Z,100.00
2023-03-27T11:18:29.399Z,100.00
2023-03-27T11:21:46.355Z,100.00
2023-03-27T11:24:54.468Z,100.00
2023-03-27T11:27:58.993Z,100.00
2023-03-27T11:31:14.573Z,100.00
2023-03-27T11:34:28.818Z,100.00
2023-03-27T11:37:54.108Z,100.00
2023-03-27T11:40:59.922Z,100.00
2023-03-27T11:44:07.006Z,100.00
2023-03-27T11:47:22.491Z,100.00
2023-03-27T11:50:38.898Z,100.00
2023-03-27T11:54:02.684Z,100.00
2023-03-27T11:57:15.731Z,100.00
2023-03-27T12:00:26.359Z,100.00
2023-03-27T12:03:54.152Z,100.00
2023-03-27T12:07:26.313Z,100.00
2023-03-27T12:10:44.066Z,100.00
2023-03-27T12:14:11.356Z,100.00
2023-03-27T12:17:29.520Z,100.00
2023-03-27T12:20:58.992Z,100.00
2023-03-27T12:24:16.531Z,100.00
2023-03-27T12:27:40.796Z,100.00
2023-03-27T12:30:57.308Z,100.00
2023-03-27T12:34:03.929Z,100.00
2023-03-27T12:37:20.286Z,100.00
2023-03-27T12:40:26.322Z,100.00
2023-03-27T12:43:34.867Z,100.00
2023-03-27T12:47:17.521Z,100.00
2023-03-27T12:50:28.229Z,100.00
2023-03-27T12:53:37.600Z,100.00
2023-03-27T12:56:44.034Z,100.00
2023-03-27T12:59:58.352Z,100.00
2023-03-27T13:03:44.628Z,100.00
2023-03-27T13:06:57.340Z,100.00
2023-03-27T13:10:10.895Z,100.00
2023-03-27T13:13:35.709Z,100.00
2023-03-27T13:16:49.655Z,100.00
2023-03-27T13:20:14.844Z,100.00
2023-03-27T13:23:33.499Z,100.00
2023-03-27T13:26:48.551Z,100.00
2023-03-27T13:29:54.573Z,100.00
2023-03-27T13:33:19.531Z,100.00
2023-03-27T13:36:25.382Z,100.00
2023-03-27T13:39:39.895Z,100.00
2023-03-27T13:42:46.886Z,100.00
2023-03-27T13:46:06.048Z,100.00
2023-03-27T13:49:34.118Z,100.00
2023-03-27T13:52:50.763Z,100.00
2023-03-27T13:56:21.594Z,100.00
2023-03-27T13:59:41.182Z,100.00
2023-03-27T14:02:58.950Z,100.00
2023-03-27T14:06:25.586Z,100.00
2023-03-27T14:09:57.631Z,100.00
2023-03-27T14:13:14.748Z,100.00
2023-03-27T14:16:40.754Z,100.00
2023-03-27T14:19:51.945Z,100.00
2023-03-27T14:23:13.850Z,100.00
2023-03-27T14:26:25.269Z,100.00
2023-03-27T14:29:35.851Z,100.00
2023-03-27T14:32:43.742Z,100.00
2023-03-27T14:35:55.267Z,100.00
2023-03-27T14:39:15.264Z,100.00
2023-03-27T14:42:23.025Z,100.00
2023-03-27T14:45:34.310Z,100.00
2023-03-27T14:48:43.530Z,100.00
2023-03-27T14:51:56.579Z,100.00
2023-03-27T14:55:05.738Z,100.00
2023-03-27T14:58:15.483Z,100.00
2023-03-27T15:01:20.924Z,100.00
2023-03-27T15:04:33.022Z,100.00
2023-03-27T15:07:46.732Z,100.00
2023-03-27T15:10:55.756Z,100.00
2023-03-27T15:14:03.422Z,100.00
2023-03-27T15:17:15.425Z,100.00
2023-03-27T15:20:25.320Z,100.00
2023-03-27T15:23:42.023Z,100.00
2023-03-27T15:26:49.739Z,100.00
2023-03-27T15:30:02.079Z,100.00
2023-03-27T15:33:13.122Z,100.00
2023-03-27T15:36:30.094Z,100.00
2023-03-27T15:39:39.375Z,100.00
2023-03-27T15:42:51.767Z,100.00
2023-03-27T15:46:03.182Z,100.00
2023-03-27T15:49:36.144Z,100.00
2023-03-27T15:52:52.104Z,100.00
2023-03-27T15:56:01.902Z,100.00
2023-03-27T15:59:11.433Z,100.00
2023-03-27T16:02:19.344Z,100.00
2023-03-27T16:05:28.720Z,100.00
2023-03-27T16:08:39.291Z,100.00
2023-03-27T16:11:51.045Z,100.00
2023-03-27T16:15:00.192Z,100.00
2023-03-27T16:18:16.551Z,100.00
2023-03-27T16:21:24.940Z,100.00
2023-03-27T16:24:32.054Z,100.00
2023-03-27T16:27:43.415Z,100.00
2023-03-27T16:30:56.212Z,100.00
2023-03-27T16:34:02.971Z,100.00
2023-03-27T16:37:15.150Z,100.00
2023-03-27T16:40:24.008Z,100.00
2023-03-27T16:43:35.818Z,98.46
2023-03-27T16:46:43.197Z,98.60
2023-03-27T16:50:08.076Z,99.35
2023-03-27T16:53:18.447Z,94.75
2023-03-27T16:56:25.834Z,94.43
2023-03-27T16:59:34.079Z,94.76
2023-03-27T17:02:47.526Z,93.01
2023-03-27T17:05:55.133Z,91.87
2023-03-27T17:09:04.097Z,91.93
2023-03-27T17:12:13.289Z,91.20
2023-03-27T17:15:20.867Z,90.72
2023-03-27T17:18:27.728Z,90.29
2023-03-27T17:21:41.819Z,89.06
2023-03-27T17:24:56.036Z,90.60
2023-03-27T17:28:06.248Z,90.34
2023-03-27T17:31:13.432Z,87.12
2023-03-27T17:34:24.693Z,85.79
2023-03-27T17:37:29.853Z,85.16
2023-03-27T17:40:38.948Z,84.61
2023-03-27T17:43:45.673Z,84.31
2023-03-27T17:46:51.537Z,81.73
2023-03-27T17:49:57.456Z,82.84
2023-03-27T17:53:03.901Z,82.70
2023-03-27T17:56:12.041Z,81.40
2023-03-27T17:59:20.444Z,82.01
2023-03-27T18:02:27.625Z,81.24
2023-03-27T18:05:40.243Z,81.95
2023-03-27T18:08:46.868Z,78.66
2023-03-27T18:11:54.787Z,79.27
2023-03-27T18:15:00.399Z,79.01
2023-03-27T18:18:07.694Z,78.99
2023-03-27T18:21:17.301Z,79.51
2023-03-27T18:24:24.806Z,78.49
2023-03-27T18:27:32.118Z,79.91
2023-03-27T18:30:40.738Z,78.94
2023-03-27T18:33:48.360Z,78.91
2023-03-27T18:36:59.537Z,76.90
2023-03-27T18:40:10.698Z,77.22
2023-03-27T18:43:18.325Z,77.49
2023-03-27T18:46:25.026Z,78.22
2023-03-27T18:49:33.276Z,77.87
2023-03-27T18:52:42.083Z,79.20
2023-03-27T18:55:53.111Z,76.67
2023-03-27T18:59:01.125Z,75.54
2023-03-27T19:02:10.072Z,74.86
2023-03-27T19:05:17.907Z,73.59
2023-03-27T19:08:24.924Z,74.38
2023-03-27T19:11:35.727Z,71.98
2023-03-27T19:14:50.295Z,72.30
2023-03-27T19:17:59.878Z,72.74
2023-03-27T19:21:10.640Z,73.90
2023-03-27T19:24:19.261Z,73.58
2023-03-27T19:27:26.983Z,72.71
2023-03-27T19:30:45.948Z,73.15
2023-03-27T19:33:54.981Z,74.19
2023-03-27T19:37:02.550Z,75.34
2023-03-27T19:40:09.982Z,74.71
2023-03-27T19:43:18.724Z,74.60
2023-03-27T19:46:25.001Z,74.65
2023-03-27T19:49:30.023Z,74.08
2023-03-27T19:52:36.948Z,73.69
2023-03-27T19:55:42.801Z,75.00
2023-03-27T19:58:51.529Z,74.36
2023-03-27T20:01:59.730Z,74.44
2023-03-27T20:05:08.269Z,72.64
2023-03-27T20:08:13.604Z,74.39
2023-03-27T20:11:21.405Z,71.98
2023-03-27T20:14:27.949Z,70.43
2023-03-27T20:17:33.904Z,71.67
2023-03-27T20:20:41.437Z,68.18
2023-03-27T20:23:55.412Z,69.89
2023-03-27T20:27:08.113Z,69.06
2023-03-27T20:30:17.982Z,67.77
2023-03-27T20:33:28.668Z,67.24
2023-03-27T20:36:36.577Z,67.28
2023-03-27T20:39:52.348Z,67.51
2023-03-27T20:43:07.534Z,68.64
2023-03-27T20:46:19.971Z,66.76
2023-03-27T20:49:40.772Z,66.05
2023-03-27T20:52:47.828Z,66.21
2023-03-27T20:55:59.986Z,65.88
2023-03-27T20:59:08.051Z,65.71
2023-03-27T21:02:18.545Z,65.62
2023-03-27T21:05:28.704Z,66.90
2023-03-27T21:08:45.218Z,66.35
2023-03-27T21:11:57.322Z,66.38
2023-03-27T21:15:05.237Z,67.58
2023-03-27T21:18:13.920Z,66.94
2023-03-27T21:21:25.866Z,66.84
2023-03-27T21:24:33.453Z,67.77
2023-03-27T21:27:42.379Z,68.20
2023-03-27T21:30:50.487Z,68.13
2023-03-27T21:34:01.890Z,69.07
2023-03-27T21:37:10.161Z,69.06
2023-03-27T21:40:19.308Z,67.92
2023-03-27T21:43:27.279Z,68.07
2023-03-27T21:46:38.240Z,67.53
2023-03-27T21:49:45.753Z,68.77
2023-03-27T21:52:59.612Z,69.03
2023-03-27T21:56:14.132Z,68.91
2023-03-27T21:59:20.731Z,67.74
2023-03-27T22:02:29.108Z,68.68
2023-03-27T22:05:44.918Z,67.82
2023-03-27T22:08:57.825Z,67.54
2023-03-27T22:12:08.798Z,68.01
2023-03-27T22:15:16.303Z,67.74
2023-03-27T22:18:25.383Z,67.39
2023-03-27T22:21:35.748Z,67.32
2023-03-27T22:24:46.087Z,67.91
2023-03-27T22:27:55.341Z,67.36
2023-03-27T22:31:14.939Z,66.26
2023-03-27T22:34:25.421Z,66.00
2023-03-27T22:37:31.410Z,66.66
2023-03-27T22:40:40.843Z,66.90
2023-03-27T22:43:50.140Z,65.89
2023-03-27T22:47:04.170Z,66.65
2023-03-27T22:50:18.624Z,65.82
2023-03-27T22:53:30.021Z,66.48
2023-03-27T22:56:42.318Z,67.84
2023-03-27T22:59:54.290Z,67.30
2023-03-27T23:03:05.271Z,67.12
2023-03-27T23:06:18.259Z,65.92
2023-03-27T23:09:32.360Z,65.67
2023-03-27T23:12:41.422Z,66.27
2023-03-27T23:15:51.212Z,66.37
2023-03-27T23:19:00.526Z,66.71
2023-03-27T23:22:08.413Z,68.27
2023-03-27T23:25:15.548Z,67.98
2023-03-27T23:28:23.390Z,69.14
2023-03-27T23:31:33.531Z,70.61
2023-03-27T23:34:44.384Z,72.83
2023-03-27T23:37:51.270Z,73.00
2023-03-27T23:41:01.568Z,73.90
2023-03-27T23:44:10.588Z,74.50
2023-03-27T23:47:19.999Z,77.56
2023-03-27T23:50:30.942Z,76.90
2023-03-27T23:53:39.321Z,76.30
2023-03-27T23:56:47.031Z,76.85
2023-03-27T23:59:55.755Z,78.35
